Overview Statistics Trail Chart Weather Telemetry Raw packets
 

This is the latest recevied weather packets stored in our database for station/object K1RFS. If no packets are shown the sender has not sent any weather packets the latest 10 day(s).

<< 98 99 100 101 102 103 104 >>
Time Temp. Humidity Pressure Rain* Wind** Luminosity Snow
1787960390 25.56° C 48% 1003.2 hPa 0 mm - 160 W/m² -
1787960085 25° C 50% 1003.1 hPa 0 mm - 209 W/m² -
1787959780 25.56° C 50% 1003.3 hPa 0 mm - 260 W/m² -
1787959475 27.78° C 46% 1003.2 hPa 0 mm - 277 W/m² -
1787959170 30.56° C 35% 1003.1 hPa 0 mm - 263 W/m² -
1787958866 31.67° C 33% 1002.9 hPa 0 mm - 322 W/m² -
1787958560 31.67° C 29% 1002.8 hPa 0 mm - 367 W/m² -
1787958266 30.56° C 31% 1002.8 hPa 0 mm - 296 W/m² -
1787957955 28.89° C 34% 1002.8 hPa 0 mm - 425 W/m² -
1787957655 27.22° C 38% 1002.6 hPa 0 mm - 228 W/m² -
1787957351 26.67° C 40% 1003 hPa 0 mm - 196 W/m² -
1787957050 26.67° C 43% 1003.2 hPa 0 mm - 184 W/m² -
1787956749 26.11° C 41% 1002.8 hPa 0 mm - 189 W/m² -
1787956445 25.56° C 43% 1003.2 hPa 0 mm - 115 W/m² -
1787956140 25.56° C 44% 1003.3 hPa 0 mm - 70 W/m² -
1787955835 25.56° C 42% 1003.2 hPa 0 mm - 29 W/m² -
1787955530 26.67° C 42% 1003.2 hPa 0 mm - 23 W/m² -
1787955230 26.67° C 41% 1002.5 hPa 0 mm - 41 W/m² -
1787954928 28.33° C 39% 1002.4 hPa 0 mm - 35 W/m² -
1787954621 28.89° C 37% 1002.2 hPa 0 mm - 67 W/m² -
1787954320 29.44° C 32% 1002.3 hPa 0 mm - 84 W/m² -
1787954016 29.44° C 30% 1002.3 hPa 0 mm - 80 W/m² -
1787953714 30.56° C 30% 1002.1 hPa 0 mm - 108 W/m² -
1787953410 30° C 29% 1002.2 hPa 0 mm - 444 W/m² -
1787953107 29.44° C 30% 1002.5 hPa 0 mm - 152 W/m² -

* Rain latest hour (hover to see other rain measurements)
** Current wind speed in m/s (hover to see current wind gust speed)